Capitol Logistics 1150


EHAM
Schiphol International Airport
Amsterdam, NL
EBLG
Liège Airport
Liege, BE

Activity Log

Date Flight Route Aircraft Duration
10/28/2019 CPX750 Not Available B738 0h 54m
10/22/2019 CPX750 N0428F230 NIK NIK5D B738 1h 10m

Route Details

Aircraft Information
Primary: Boeing 737-800BCF
Backup: Not Available
Route Data
Distance: 104nm
Sched. Duration: 1h 00m
Avg. Duration: 0h 82m (-18m)
Times Flown: 2
Recm'd Route: Not Available
Planned Altitude: 20,000ft
Origin Wx: EHAM 270155Z 25009KT 9999 FEW025 04/01 Q1004 NOSIG
Dest. Wx: EBLG 270150Z 21010KT 9999 SCT032 02/00 Q1007 NOSIG
Notes:

Financial History
Total Freight: 63,888lbs
Average Load: 31,944lbs/flt
Fuel Used: 9,423lbs
Avg. Fuel Used: 4,712lbs/flt
Fuel Expense: $7,538
Avg. Fuel Expense: $3,769
Avg. Fuel Cost: $0.80/lbs
Total Gross Income: $121,387
Pilot Pay: $458
Total Expenses: $13,214
Total Revenue: $100,153
Average Revenue: $60,693.60